Time;durP1;ratioP1;P1;durP2;ratioP2;P2;SDS_P1;SDS_P2;PMS_P1;PMS_P2;Temp;Humidity;BMP_temperature;BMP_pressure;BME280_temperature;BME280_humidity;BME280_pressure;Samples;Min_cycle;Max_cycle;Signal;HPM_P1;HPM_P2
2022/10/02 00:00:48;;;;;;;24.23;5.30;;;;;;;12.16;99.66;101349.44;5036796;28;20025;-58
2022/10/02 00:03:23;;;;;;;32.83;5.70;;;;;;;12.22;100.00;101359.44;5046407;28;20033;-58
2022/10/02 00:05:56;;;;;;;26.30;5.45;;;;;;;12.11;99.87;101349.91;5044877;28;20037;-57
2022/10/02 00:08:29;;;;;;;27.65;5.68;;;;;;;12.19;100.00;101364.25;5038218;28;20030;-57
2022/10/02 00:10:58;;;;;;;29.25;6.03;;;;;;;12.23;100.00;101357.59;5039242;28;20032;-57
2022/10/02 00:13:30;;;;;;;26.88;5.80;;;;;;;12.22;100.00;101362.09;5034437;28;20048;-57
2022/10/02 00:15:56;;;;;;;26.90;5.35;;;;;;;12.21;100.00;101368.41;5043762;28;20045;-57
2022/10/02 00:18:27;;;;;;;35.28;6.55;;;;;;;12.20;100.00;101366.72;5043804;28;20074;-58
2022/10/02 00:21:01;;;;;;;21.00;5.10;;;;;;;12.19;100.00;101370.38;5040652;28;20550;-57
2022/10/02 00:23:44;;;;;;;27.42;5.57;;;;;;;12.24;100.00;101373.41;5034170;28;20059;-57
2022/10/02 00:26:17;;;;;;;31.45;5.32;;;;;;;12.24;100.00;101378.72;5037964;28;20048;-59
2022/10/02 00:28:52;;;;;;;28.85;5.82;;;;;;;12.28;100.00;101378.41;5035813;28;20022;-57
2022/10/02 00:31:50;;;;;;;35.63;6.13;;;;;;;12.24;100.00;101373.41;5046988;28;20021;-57
2022/10/02 00:34:45;;;;;;;34.22;5.60;;;;;;;12.22;100.00;101386.03;5037747;28;20044;-58
2022/10/02 00:37:24;;;;;;;33.03;6.05;;;;;;;12.23;100.00;101386.84;5049526;28;20488;-57
2022/10/02 00:40:27;;;;;;;28.52;5.13;;;;;;;12.23;100.00;101393.00;5032960;28;20029;-57
2022/10/02 00:43:10;;;;;;;30.30;5.57;;;;;;;12.21;100.00;101384.38;5041258;28;20035;-57
2022/10/02 00:45:52;;;;;;;27.65;5.53;;;;;;;12.26;100.00;101391.84;5035637;28;20037;-58
2022/10/02 00:49:16;;;;;;;25.83;5.55;;;;;;;12.23;100.00;101387.69;5033289;28;20488;-57
2022/10/02 00:51:50;;;;;;;30.50;5.15;;;;;;;12.21;100.00;101394.16;5014544;28;20084;-57
2022/10/02 00:54:46;;;;;;;26.10;4.97;;;;;;;12.22;100.00;101385.19;5032876;28;20037;-58
2022/10/02 00:57:38;;;;;;;29.00;5.28;;;;;;;12.21;100.00;101384.38;5045955;28;20387;-58
2022/10/02 01:00:13;;;;;;;32.63;5.07;;;;;;;12.19;100.00;101386.31;5047344;28;20075;-57
2022/10/02 01:02:55;;;;;;;28.27;5.25;;;;;;;12.20;100.00;101388.00;5038397;28;20033;-57
2022/10/02 01:05:20;;;;;;;30.02;5.82;;;;;;;12.20;100.00;101388.00;5044820;28;20124;-57
2022/10/02 01:07:49;;;;;;;31.52;5.63;;;;;;;12.20;100.00;101392.50;5046011;28;20429;-57
2022/10/02 01:10:15;;;;;;;30.27;5.55;;;;;;;12.24;100.00;101389.34;5038430;28;20407;-60
2022/10/02 01:12:41;;;;;;;29.02;5.40;;;;;;;12.26;100.00;101398.97;5038006;28;20035;-59
2022/10/02 01:15:14;;;;;;;32.00;5.47;;;;;;;12.24;100.00;101389.34;5050365;28;20039;-58
2022/10/02 01:17:40;;;;;;;23.60;5.13;;;;;;;12.29;100.00;101390.69;5036788;28;20434;-58
2022/10/02 01:20:11;;;;;;;33.40;5.82;;;;;;;12.28;100.00;101395.19;5036179;28;20026;-58
2022/10/02 01:22:50;;;;;;;29.00;5.57;;;;;;;12.28;100.00;101389.03;5035733;28;20391;-58
2022/10/02 01:25:15;;;;;;;29.17;5.43;;;;;;;12.30;100.00;101381.72;5040254;28;20044;-59
2022/10/02 01:27:40;;;;;;;30.10;5.30;;;;;;;12.30;100.00;101381.72;5035484;28;20029;-57
2022/10/02 01:30:09;;;;;;;33.97;5.63;;;;;;;12.29;100.00;101380.06;5040254;28;20496;-58
2022/10/02 01:32:39;;;;;;;31.20;5.50;;;;;;;12.28;100.00;101373.91;5046340;28;20021;-58
2022/10/02 01:35:05;;;;;;;30.05;5.75;;;;;;;12.29;100.00;101375.56;5037991;28;20057;-57
2022/10/02 01:37:35;;;;;;;29.58;5.40;;;;;;;12.28;100.00;101381.06;5032995;28;20057;-57
2022/10/02 01:40:30;;;;;;;37.28;5.70;;;;;;;12.32;100.00;101385.06;5033326;28;20037;-57
2022/10/02 01:43:36;;;;;;;29.60;5.80;;;;;;;12.31;100.00;101383.38;5042955;28;20116;-58
2022/10/02 01:46:04;;;;;;;31.42;5.47;;;;;;;12.29;100.00;101386.19;5039880;28;20037;-57
2022/10/02 01:48:45;;;;;;;31.00;5.75;;;;;;;12.31;100.00;101394.03;5041253;28;20037;-57
2022/10/02 01:51:19;;;;;;;32.88;6.45;;;;;;;12.30;100.00;101393.22;5040775;28;20480;-60
2022/10/02 01:53:52;;;;;;;36.95;5.70;;;;;;;12.31;100.00;101400.19;5038187;28;20025;-58
2022/10/02 01:56:32;;;;;;;;;;;;;;;12.37;100.00;101393.38;5046926;28;20476;-59
2022/10/02 01:59:09;;;;;;;33.83;5.40;;;;;;;12.34;100.00;101393.72;5045334;28;19932;-58
2022/10/02 02:02:06;;;;;;;35.30;6.28;;;;;;;12.34;100.00;101388.41;5040519;28;20033;-58
2022/10/02 02:04:56;;;;;;;33.08;5.60;;;;;;;12.33;100.00;101392.88;5041211;28;20039;-58
2022/10/02 02:07:30;;;;;;;33.75;5.50;;;;;;;12.37;100.00;101402.22;5046313;28;20413;-58
2022/10/02 02:09:55;;;;;;;39.28;6.07;;;;;;;12.42;100.00;101390.25;5049713;28;20036;-58
2022/10/02 02:12:23;;;;;;;30.88;5.68;;;;;;;12.35;100.00;101390.88;5048082;28;20026;-58
2022/10/02 02:15:01;;;;;;;29.20;5.70;;;;;;;12.36;100.00;101399.72;5038617;28;20031;-57
2022/10/02 02:17:50;;;;;;;37.10;6.43;;;;;;;12.41;100.00;101393.91;5037627;28;20095;-58
2022/10/02 02:20:27;;;;;;;36.80;6.30;;;;;;;12.42;100.00;101396.41;5041064;28;20493;-58
2022/10/02 02:22:58;;;;;;;34.45;6.22;;;;;;;12.42;100.00;101401.72;5036090;28;20037;-58
2022/10/02 02:25:27;;;;;;;33.38;5.53;;;;;;;12.42;100.00;101396.41;5044563;28;20025;-57
2022/10/02 02:27:56;;;;;;;30.35;6.03;;;;;;;12.47;100.00;101399.44;5032893;28;20112;-57
2022/10/02 02:30:23;;;;;;;30.10;5.82;;;;;;;12.48;100.00;101405.59;5042693;28;20416;-58
2022/10/02 02:33:01;;;;;;;32.95;5.60;;;;;;;12.51;100.00;101395.47;5040728;28;20346;-57
2022/10/02 02:35:32;;;;;;;28.58;5.97;;;;;;;12.55;100.00;101400.44;5048982;28;20028;-57
2022/10/02 02:38:41;;;;;;;28.10;5.43;;;;;;;12.57;100.00;101393.97;5041393;28;20053;-59
2022/10/02 02:41:22;;;;;;;27.58;5.05;;;;;;;12.58;100.00;101400.13;5041022;28;20131;-58
2022/10/02 02:44:00;;;;;;;31.33;5.47;;;;;;;12.62;100.00;101393.47;5049970;28;20033;-58
2022/10/02 02:47:02;;;;;;;28.92;5.15;;;;;;;12.59;100.00;101396.47;5043845;28;20037;-57
2022/10/02 02:49:28;;;;;;;23.48;4.68;;;;;;;12.59;100.00;101402.63;5046959;28;20045;-57
2022/10/02 02:51:56;;;;;;;21.27;4.47;;;;;;;12.53;100.00;101397.13;5040849;28;20148;-57
2022/10/02 02:54:28;;;;;;;18.92;3.90;;;;;;;12.49;100.00;101392.09;5042478;28;20373;-58
2022/10/02 02:56:56;;;;;;;16.97;3.60;;;;;;;12.45;100.00;101403.22;5048465;28;20433;-57
2022/10/02 02:59:25;;;;;;;14.93;3.50;;;;;;;12.43;100.00;101414.03;5044156;28;20693;-57
2022/10/02 03:01:50;;;;;;;16.67;3.75;;;;;;;12.41;100.00;101416.03;5049003;28;20037;-58
2022/10/02 03:04:15;;;;;;;11.00;3.05;;;;;;;12.37;100.00;101409.34;5050394;28;20108;-57
2022/10/02 03:06:44;;;;;;;13.52;3.17;;;;;;;12.32;100.00;101411.66;5037654;28;20669;-58
2022/10/02 03:09:15;;;;;;;13.13;2.83;;;;;;;12.24;100.00;101410.63;5047252;28;20124;-57
2022/10/02 03:11:46;;;;;;;13.57;3.15;;;;;;;12.24;100.00;101415.13;5042382;28;20037;-58
2022/10/02 03:14:53;;;;;;;10.43;3.10;;;;;;;12.23;100.00;101406.28;5047630;28;20033;-58
2022/10/02 03:17:29;;;;;;;7.85;2.58;;;;;;;12.18;100.00;101410.44;5040139;28;20049;-58
2022/10/02 03:20:44;;;;;;;9.68;2.85;;;;;;;12.18;100.00;101410.44;5036919;28;20037;-57
2022/10/02 03:23:16;;;;;;;11.65;2.75;;;;;;;12.05;100.00;101405.53;5026553;28;20052;-58
2022/10/02 03:25:50;;;;;;;10.68;2.92;;;;;;;12.08;100.00;101415.84;5048449;28;20029;-58
2022/10/02 03:28:35;;;;;;;10.85;3.10;;;;;;;12.08;100.00;101407.88;5046961;28;20022;-57
2022/10/02 03:31:01;;;;;;;8.88;2.67;;;;;;;12.07;100.00;101409.72;5051186;28;20082;-57
2022/10/02 03:33:30;;;;;;;10.50;3.22;;;;;;;12.04;100.00;101411.84;5047398;28;20040;-57
2022/10/02 03:35:56;;;;;;;10.65;3.03;;;;;;;12.03;100.00;101410.97;5038632;28;20033;-57
2022/10/02 03:38:23;;;;;;;13.85;3.47;;;;;;;12.05;100.00;101411.66;5051095;28;20052;-56
2022/10/02 03:40:51;;;;;;;11.18;3.30;;;;;;;12.06;100.00;101413.38;5042583;28;20163;-58
2022/10/02 03:43:20;;;;;;;14.80;3.92;;;;;;;12.07;100.00;101411.53;5036436;28;20113;-58
2022/10/02 03:45:45;;;;;;;13.55;3.55;;;;;;;12.04;100.00;101444.56;5044086;28;20083;-58
2022/10/02 03:48:10;;;;;;;9.65;3.50;;;;;;;12.02;100.00;101416.44;5050249;28;20472;-58
2022/10/02 03:50:36;;;;;;;11.50;3.80;;;;;;;12.00;100.00;101435.22;5047524;28;20071;-58
2022/10/02 03:53:11;;;;;;;12.10;4.15;;;;;;;12.02;100.00;101435.03;5035641;28;20048;-58
2022/10/02 03:55:39;;;;;;;15.13;5.40;;;;;;;12.00;100.00;101429.91;5041014;28;20032;-57
2022/10/02 03:58:16;;;;;;;14.65;5.53;;;;;;;12.03;100.00;101434.91;5042048;28;20059;-58
2022/10/02 04:00:51;;;;;;;14.98;6.43;;;;;;;12.05;100.00;101424.16;5047456;28;20037;-57
2022/10/02 04:03:24;;;;;;;20.50;8.68;;;;;;;12.09;100.00;101425.50;5035434;28;20204;-58
2022/10/02 04:05:55;;;;;;;22.67;9.57;;;;;;;12.11;100.00;101428.84;5039476;28;20056;-59
2022/10/02 04:08:33;;;;;;;22.40;9.40;;;;;;;12.12;100.00;101422.53;5037300;28;20036;-60
2022/10/02 04:11:07;;;;;;;21.83;9.63;;;;;;;12.11;100.00;101415.53;5042923;28;20063;-58
2022/10/02 04:13:56;;;;;;;26.15;9.85;;;;;;;12.14;100.00;101420.53;5037088;28;20029;-57
2022/10/02 04:16:56;;;;;;;26.00;9.85;;;;;;;12.13;100.00;101426.84;5040217;28;20033;-56
2022/10/02 04:19:25;;;;;;;23.58;9.70;;;;;;;12.12;100.00;101430.50;5033251;28;20026;-57
2022/10/02 04:22:09;;;;;;;24.25;10.15;;;;;;;12.12;100.00;101430.50;5034156;28;20045;-58
2022/10/02 04:25:02;;;;;;;22.27;9.57;;;;;;;12.15;100.00;101426.69;5036844;28;20063;-58
2022/10/02 04:27:42;;;;;;;29.30;10.07;;;;;;;12.12;100.00;101427.84;5047091;28;20037;-58
2022/10/02 04:30:14;;;;;;;24.15;9.75;;;;;;;12.12;100.00;101427.84;5041796;28;20029;-60
2022/10/02 04:32:39;;;;;;;23.35;9.63;;;;;;;12.12;100.00;101427.84;5046451;28;20037;-58
2022/10/02 04:35:12;;;;;;;23.63;10.20;;;;;;;12.10;100.00;101424.50;5038854;28;20025;-56
2022/10/02 04:38:01;;;;;;;25.27;10.90;;;;;;;12.16;100.00;101423.88;5044661;28;20107;-58
2022/10/02 04:40:50;;;;;;;27.52;11.05;;;;;;;12.19;100.00;101431.53;5048337;28;20037;-58
2022/10/02 04:43:41;;;;;;;25.55;11.65;;;;;;;12.20;100.00;101432.38;5043257;28;20056;-57
2022/10/02 04:46:21;;;;;;;27.17;11.98;;;;;;;12.21;100.00;101442.84;5042718;28;20059;-57
2022/10/02 04:48:56;;;;;;;30.60;13.35;;;;;;;12.24;100.00;101453.16;5043742;28;20391;-58
2022/10/02 04:51:33;;;;;;;34.67;14.85;;;;;;;12.26;100.00;101454.81;5048665;28;20025;-57
2022/10/02 04:54:04;;;;;;;35.72;15.93;;;;;;;12.28;100.00;101452.88;5038689;28;20473;-57
2022/10/02 04:56:59;;;;;;;38.72;17.60;;;;;;;12.32;100.00;101454.19;5037634;28;20041;-57
2022/10/02 05:00:02;;;;;;;36.53;18.17;;;;;;;12.35;100.00;101459.22;5031684;28;20037;-59
2022/10/02 05:02:43;;;;;;;34.78;18.25;;;;;;;12.35;100.00;101464.53;5044576;28;20025;-57
2022/10/02 05:05:36;;;;;;;35.03;18.58;;;;;;;12.38;100.00;101464.19;5036745;28;20025;-58
2022/10/02 05:08:01;;;;;;;43.20;19.10;;;;;;;12.40;100.00;101459.56;5041282;28;20037;-58
2022/10/02 05:10:55;;;;;;;37.30;19.45;;;;;;;12.39;100.00;101460.56;5038833;28;20043;-58
2022/10/02 05:13:59;;;;;;;41.80;18.15;;;;;;;12.43;100.00;101464.56;5039736;28;20421;-58
2022/10/02 05:16:46;;;;;;;35.95;18.58;;;;;;;12.43;100.00;101461.91;5038951;28;20033;-58
2022/10/02 05:19:33;;;;;;;38.40;18.60;;;;;;;12.44;100.00;101460.91;5042199;28;20043;-58
2022/10/02 05:22:17;;;;;;;38.97;18.15;;;;;;;12.45;100.00;101461.75;5038943;28;20079;-56
2022/10/02 05:25:06;;;;;;;39.90;19.75;;;;;;;12.44;100.00;101466.22;5032780;28;20060;-58
2022/10/02 05:27:43;;;;;;;42.22;19.92;;;;;;;12.45;100.00;101470.59;5039104;28;20609;-58
2022/10/02 05:30:13;;;;;;;43.33;19.95;;;;;;;12.44;100.00;101474.19;5033826;28;20025;-57
2022/10/02 05:33:08;;;;;;;37.13;18.95;;;;;;;12.46;100.00;101477.56;5042582;28;20498;-60
2022/10/02 05:35:53;;;;;;;39.92;19.33;;;;;;;12.45;100.00;101475.91;5034958;28;20088;-57
2022/10/02 05:38:31;;;;;;;41.22;19.33;;;;;;;12.46;100.00;101482.88;5038613;28;20495;-58
2022/10/02 05:41:15;;;;;;;38.42;18.30;;;;;;;12.43;100.00;101485.84;5041119;28;20028;-59
2022/10/02 05:44:15;;;;;;;42.47;17.58;;;;;;;12.48;100.00;101490.72;5034975;28;20033;-58
2022/10/02 05:46:45;;;;;;;44.92;17.05;;;;;;;12.42;100.00;101481.53;5040699;28;20037;-61
2022/10/02 05:49:21;;;;;;;46.35;15.63;;;;;;;12.49;100.00;101487.06;5036158;28;20033;-60
2022/10/02 05:51:54;;;;;;;34.72;14.20;;;;;;;12.48;100.00;101480.88;5039058;28;20060;-57
2022/10/02 05:54:48;;;;;;;41.72;14.13;;;;;;;12.49;100.00;101487.88;5036652;28;20028;-57
2022/10/02 05:57:35;;;;;;;41.65;13.75;;;;;;;12.49;100.00;101493.19;5034297;28;20247;-61
2022/10/02 06:00:23;;;;;;;34.15;12.05;;;;;;;12.50;100.00;101492.19;5036212;28;20045;-57
2022/10/02 06:02:56;;;;;;;34.78;11.07;;;;;;;12.51;100.00;101493.88;5034629;28;20088;-57
2022/10/02 06:05:57;;;;;;;33.60;10.07;;;;;;;12.58;100.00;101490.59;5036390;28;20030;-57
2022/10/02 06:08:33;;;;;;;36.85;9.38;;;;;;;12.54;100.00;101489.22;5036556;28;20048;-57
2022/10/02 06:11:06;;;;;;;32.70;9.43;;;;;;;12.51;100.00;101491.22;5037356;28;20060;-58
2022/10/02 06:13:39;;;;;;;37.83;9.25;;;;;;;12.53;100.00;101503.53;5034949;28;20119;-58
2022/10/02 06:16:13;;;;;;;39.72;8.80;;;;;;;12.53;100.00;101508.84;5036814;28;20045;-57
2022/10/02 06:18:42;;;;;;;27.00;8.32;;;;;;;12.55;100.00;101513.03;5037225;28;20027;-59
2022/10/02 06:21:24;;;;;;;37.88;8.50;;;;;;;12.57;100.00;101511.03;5045313;28;20024;-57
2022/10/02 06:23:55;;;;;;;33.40;8.05;;;;;;;12.56;100.00;101511.19;5038219;28;20032;-58
2022/10/02 06:26:53;;;;;;;34.08;8.02;;;;;;;12.61;100.00;101522.19;5033441;28;20073;-58
2022/10/02 06:29:52;;;;;;;26.15;7.45;;;;;;;12.60;100.00;101520.53;5036334;28;20696;-58
2022/10/02 06:32:36;;;;;;;32.40;7.10;;;;;;;12.60;100.00;101528.50;5040461;28;20048;-58
2022/10/02 06:35:10;;;;;;;32.60;7.30;;;;;;;12.63;100.00;101514.91;5030418;28;20033;-57
2022/10/02 06:38:17;;;;;;;35.15;7.35;;;;;;;12.69;100.00;101524.91;5035749;28;20129;-57
2022/10/02 06:41:01;;;;;;;29.98;6.90;;;;;;;12.66;100.00;101530.53;5035204;28;20132;-58
2022/10/02 06:43:45;;;;;;;32.53;7.63;;;;;;;12.68;100.00;101528.53;5036237;28;20060;-58
2022/10/02 06:46:10;;;;;;;30.75;7.45;;;;;;;12.68;100.00;101539.19;5037256;28;20032;-58
2022/10/02 06:48:56;;;;;;;33.15;8.48;;;;;;;12.68;100.00;101541.84;5038201;28;20036;-57
2022/10/02 06:51:45;;;;;;;31.23;8.20;;;;;;;12.68;100.00;101544.50;5040013;28;20040;-57
2022/10/02 06:54:40;;;;;;;28.83;8.10;;;;;;;12.71;100.00;101544.19;5039992;28;20507;-58
2022/10/02 06:57:19;;;;;;;29.50;8.77;;;;;;;12.75;100.00;101553.53;5039631;28;20052;-57
2022/10/02 06:59:54;;;;;;;30.65;8.75;;;;;;;12.71;100.00;101557.50;5036867;28;20052;-57
2022/10/02 07:03:21;;;;;;;27.52;8.88;;;;;;;12.75;100.00;101564.19;5049137;28;20102;-58
2022/10/02 07:06:08;;;;;;;26.48;9.18;;;;;;;12.75;100.00;101568.66;5025490;28;20037;-57
2022/10/02 07:08:50;;;;;;;30.85;10.35;;;;;;;12.74;100.00;101572.31;5036428;28;20017;-57
2022/10/02 07:11:38;;;;;;;34.63;11.02;;;;;;;12.77;100.00;101567.53;5034617;28;20608;-57
2022/10/02 07:14:29;;;;;;;30.38;11.18;;;;;;;12.80;100.00;101569.03;5037722;28;20044;-61
2022/10/02 07:16:55;;;;;;;29.35;11.20;;;;;;;12.80;100.00;101563.72;5037154;28;20037;-61
2022/10/02 07:19:49;;;;;;;32.38;12.27;;;;;;;12.83;100.00;101574.03;5047153;28;20116;-61
2022/10/02 07:22:50;;;;;;;30.95;12.25;;;;;;;12.84;100.00;101569.53;5039028;28;20029;-60
2022/10/02 07:25:42;;;;;;;33.67;14.38;;;;;;;12.87;100.00;101572.72;5035624;28;20381;-61
2022/10/02 07:28:29;;;;;;;30.63;15.00;;;;;;;12.86;100.00;101573.72;5038934;28;20415;-61
2022/10/02 07:30:57;;;;;;;33.67;15.85;;;;;;;12.88;100.00;101576.22;5040497;28;20044;-57
2022/10/02 07:33:50;;;;;;;32.60;16.50;;;;;;;12.88;100.00;101577.03;5050139;28;20075;-57
2022/10/02 07:36:46;;;;;;;34.40;17.02;;;;;;;12.88;100.00;101579.72;5034547;28;20030;-57
2022/10/02 07:39:41;;;;;;;32.60;16.65;;;;;;;12.94;100.00;101580.91;5042723;28;20102;-59
2022/10/02 07:42:15;;;;;;;30.88;16.35;;;;;;;12.93;100.00;101584.53;5041358;28;20033;-57
2022/10/02 07:44:59;;;;;;;31.13;15.43;;;;;;;12.94;100.00;101586.25;5033002;28;20029;-57
2022/10/02 07:47:46;;;;;;;30.40;14.93;;;;;;;12.94;100.00;101583.56;5032729;28;20481;-56
2022/10/02 07:50:17;;;;;;;27.67;14.30;;;;;;;12.97;100.00;101593.91;5034290;28;20041;-57
2022/10/02 07:53:00;;;;;;;27.63;12.65;;;;;;;12.99;100.00;101591.94;5051224;28;20033;-57
2022/10/02 07:55:26;;;;;;;;;;;;;;;13.04;100.00;101589.59;5047334;28;20040;-57
2022/10/02 07:58:10;;;;;;;24.40;12.48;;;;;;;13.05;100.00;101598.44;5033127;28;19917;-57
2022/10/02 08:00:44;;;;;;;26.67;11.95;;;;;;;13.07;100.00;101595.63;5034060;28;20484;-57
2022/10/02 08:03:23;;;;;;;25.90;12.43;;;;;;;13.13;100.00;101600.31;5045521;28;20209;-57
2022/10/02 08:05:55;;;;;;;29.13;13.00;;;;;;;13.19;100.00;101605.00;5037057;28;20025;-57
2022/10/02 08:08:42;;;;;;;25.53;11.87;;;;;;;13.21;100.00;101605.66;5037075;28;20025;-57
2022/10/02 08:11:25;;;;;;;26.60;12.85;;;;;;;13.30;100.00;101612.69;5049581;28;20037;-57
2022/10/02 08:14:10;;;;;;;24.00;11.32;;;;;;;13.32;100.00;101616.03;5032265;28;20453;-58
2022/10/02 08:16:41;;;;;;;25.38;11.68;;;;;;;13.30;100.00;101631.34;5034870;28;20044;-57
2022/10/02 08:19:14;;;;;;;23.30;11.82;;;;;;;13.31;100.00;101627.69;5032618;28;20039;-58
2022/10/02 08:21:46;;;;;;;25.67;11.93;;;;;;;13.32;100.00;101626.69;5040566;28;20032;-57
2022/10/02 08:24:18;;;;;;;24.40;12.43;;;;;;;13.35;100.00;101636.19;5032281;28;20076;-58
2022/10/02 08:27:15;;;;;;;23.33;12.43;;;;;;;13.40;100.00;101630.38;5042593;28;20365;-58
2022/10/02 08:30:02;;;;;;;20.38;12.05;;;;;;;13.46;100.00;101637.75;5037494;28;20412;-57
2022/10/02 08:32:31;;;;;;;29.92;12.65;;;;;;;13.47;100.00;101641.25;5034038;28;20030;-57
2022/10/02 08:34:56;;;;;;;27.20;13.00;;;;;;;13.52;100.00;101636.28;5038587;28;20505;-57
2022/10/02 08:37:49;;;;;;;27.77;12.57;;;;;;;13.51;100.00;101630.09;5032176;28;20045;-57
2022/10/02 08:40:37;;;;;;;26.58;12.40;;;;;;;13.55;100.00;101650.13;5031368;28;20025;-57
2022/10/02 08:43:39;;;;;;;24.35;11.98;;;;;;;13.57;100.00;101656.09;5046210;28;20033;-58
2022/10/02 08:46:30;;;;;;;24.13;11.80;;;;;;;13.54;100.00;101656.44;5047401;28;20035;-58
2022/10/02 08:49:20;;;;;;;24.52;11.82;;;;;;;13.58;100.00;101663.09;5052183;28;20029;-57
2022/10/02 08:52:42;;;;;;;26.85;12.45;;;;;;;13.64;100.00;101666.13;5048394;28;20040;-58
2022/10/02 08:55:26;;;;;;;23.33;11.30;;;;;;;13.75;100.00;101663.16;5044198;28;20260;-57
2022/10/02 08:58:17;;;;;;;26.92;10.88;;;;;;;13.71;100.00;101667.97;5047094;28;20112;-57
2022/10/02 09:00:52;;;;;;;22.77;9.88;;;;;;;13.71;100.00;101659.13;5030965;28;20041;-57
2022/10/02 09:03:53;;;;;;;25.05;10.23;;;;;;;13.74;100.00;101666.81;5037575;28;20033;-57
2022/10/02 09:06:27;;;;;;;26.33;9.50;;;;;;;13.71;100.00;101673.31;5051717;28;20028;-58
2022/10/02 09:09:29;;;;;;;23.92;9.55;;;;;;;13.71;100.00;101685.78;5043871;28;20037;-57
2022/10/02 09:12:26;;;;;;;23.97;9.93;;;;;;;13.69;100.00;101683.31;5038293;28;20068;-57
2022/10/02 09:14:56;;;;;;;24.77;9.70;;;;;;;13.75;100.00;101679.16;5043841;28;20033;-58
2022/10/02 09:17:31;;;;;;;21.17;8.40;;;;;;;13.80;100.00;101687.50;5046801;28;20034;-57
2022/10/02 09:20:11;;;;;;;17.75;6.95;;;;;;;13.81;100.00;101686.50;5031789;28;20028;-58
2022/10/02 09:22:46;;;;;;;19.83;6.80;;;;;;;13.82;100.00;101684.69;5049628;28;20036;-57
2022/10/02 09:25:24;;;;;;;20.00;7.63;;;;;;;13.91;100.00;101678.34;5035873;28;20091;-57
2022/10/02 09:28:11;;;;;;;23.13;7.57;;;;;;;13.98;100.00;101676.69;5037309;28;20292;-57
2022/10/02 09:31:02;;;;;;;21.92;7.22;;;;;;;14.04;100.00;101677.91;5037836;28;20064;-57
2022/10/02 09:33:46;;;;;;;23.33;6.88;;;;;;;14.04;100.00;101675.22;5036108;28;20511;-57
2022/10/02 09:36:44;;;;;;;20.70;6.35;;;;;;;14.08;100.00;101681.06;5031607;28;20033;-57
2022/10/02 09:39:39;;;;;;;17.92;6.65;;;;;;;14.11;100.00;101689.56;5030355;28;20417;-58
2022/10/02 09:42:42;;;;;;;19.50;6.40;;;;;;;14.25;100.00;101700.59;5042376;28;20515;-58
2022/10/02 09:45:35;;;;;;;20.00;6.55;;;;;;;14.21;100.00;101696.59;5049979;28;20032;-57
2022/10/02 09:48:19;;;;;;;;;;;;;;;14.28;100.00;101699.41;5034685;28;20029;-59
2022/10/02 09:51:21;;;;;;;20.95;6.45;;;;;;;14.33;100.00;101697.94;5035982;28;19920;-58
2022/10/02 09:54:21;;;;;;;27.27;7.65;;;;;;;14.37;100.00;101699.25;5030928;28;20030;-59
2022/10/02 09:57:03;;;;;;;21.80;7.13;;;;;;;14.39;100.00;101702.63;5034369;28;20075;-58
2022/10/02 10:00:07;;;;;;;19.55;6.68;;;;;;;14.35;100.00;101705.75;5043688;28;20034;-58
2022/10/02 10:02:47;;;;;;;21.75;7.13;;;;;;;14.33;100.00;101703.28;5038577;28;20040;-57
2022/10/02 10:05:37;;;;;;;21.00;6.85;;;;;;;14.38;100.00;101706.28;5037399;28;20038;-58
2022/10/02 10:08:38;;;;;;;24.30;7.32;;;;;;;14.55;100.00;101710.78;5031995;28;20472;-60
2022/10/02 10:11:31;;;;;;;21.83;7.55;;;;;;;14.72;100.00;101716.97;5033371;28;20028;-58
2022/10/02 10:14:17;;;;;;;23.00;6.97;;;;;;;14.70;100.00;101713.63;5030737;28;20025;-58
2022/10/02 10:16:42;;;;;;;18.58;6.45;;;;;;;14.72;100.00;101716.97;5036703;28;20045;-60
2022/10/02 10:19:26;;;;;;;21.67;6.70;;;;;;;14.71;100.00;101715.28;5030286;28;20442;-57
2022/10/02 10:22:39;;;;;;;24.27;7.95;;;;;;;14.73;100.00;101726.63;5035123;28;20033;-58
2022/10/02 10:25:42;;;;;;;21.48;7.63;;;;;;;14.76;100.00;101723.69;5040326;28;20032;-57
2022/10/02 10:28:33;;;;;;;23.00;6.90;;;;;;;14.76;100.00;101726.34;5047697;28;20033;-58
2022/10/02 10:31:22;;;;;;;22.65;6.43;;;;;;;14.71;100.00;101739.31;5037221;28;20033;-57
2022/10/02 10:33:56;;;;;;;21.38;5.72;;;;;;;14.69;99.72;101749.34;5030404;28;20037;-58
2022/10/02 10:39:58;;;;;;;21.38;5.53;;;;;;;14.78;99.12;101759.03;5046622;28;20164;-59
2022/10/02 10:43:03;;;;;;;22.33;5.85;;;;;;;14.73;99.86;101761.34;5032354;28;20388;-57
2022/10/02 10:45:52;;;;;;;23.60;6.15;;;;;;;14.73;98.75;101759.50;5030524;28;20534;-57
2022/10/02 10:48:44;;;;;;;19.90;5.65;;;;;;;14.75;98.82;101770.06;5032938;28;20037;-57
2022/10/02 10:51:31;;;;;;;24.90;5.78;;;;;;;14.76;98.68;101761.88;5043927;28;20120;-57
2022/10/02 10:54:15;;;;;;;18.45;4.97;;;;;;;14.79;98.02;101766.03;5033962;28;20412;-57
2022/10/02 10:56:53;;;;;;;20.48;5.40;;;;;;;14.85;98.16;101765.38;5034322;28;20461;-57
2022/10/02 10:59:45;;;;;;;19.33;4.57;;;;;;;14.85;94.96;101765.38;5032903;28;20037;-57
2022/10/02 11:02:46;;;;;;;22.27;4.97;;;;;;;14.87;94.91;101757.19;5039868;28;20555;-58
2022/10/02 11:05:42;;;;;;;20.63;4.85;;;;;;;14.92;95.75;101761.03;5034075;28;20108;-57
2022/10/02 11:08:32;;;;;;;19.00;4.50;;;;;;;14.99;93.47;101757.72;5045845;28;20127;-58
2022/10/02 11:11:20;;;;;;;19.88;4.82;;;;;;;14.96;94.27;101760.69;5039729;28;20036;-58
2022/10/02 11:13:56;;;;;;;21.55;5.07;;;;;;;14.98;93.55;101764.03;5032967;28;20493;-58
2022/10/02 11:17:03;;;;;;;22.48;4.80;;;;;;;15.07;93.83;101760.38;5052805;28;20028;-58
2022/10/02 11:19:55;;;;;;;18.05;4.60;;;;;;;15.16;92.88;101762.00;5033129;28;20069;-57
2022/10/02 11:22:58;;;;;;;15.20;4.00;;;;;;;15.27;93.08;101763.50;5036717;28;20033;-58
2022/10/02 11:25:38;;;;;;;;;;;;;;;15.36;93.04;101768.81;5033636;28;20085;-59
2022/10/02 11:28:32;;;;;;;17.50;5.60;;;;;;;15.39;92.12;101776.50;5033503;28;19916;-58
2022/10/02 11:31:16;;;;;;;;;;;;;;;15.43;93.40;101773.31;5039173;28;20106;-58
2022/10/02 11:34:05;;;;;;;17.70;4.65;;;;;;;15.43;90.43;101784.00;5034317;28;19913;-60
2022/10/02 11:37:06;;;;;;;17.45;4.35;;;;;;;15.46;91.51;101780.97;5033163;28;20068;-57
2022/10/02 11:39:54;;;;;;;18.63;4.47;;;;;;;15.44;91.18;101782.16;5045955;28;20022;-57
2022/10/02 11:43:00;;;;;;;16.35;4.30;;;;;;;15.48;89.52;101785.34;5045761;28;20042;-57
2022/10/02 11:45:42;;;;;;;20.38;4.25;;;;;;;15.42;89.08;101787.69;5031738;28;20029;-58
2022/10/02 11:48:38;;;;;;;20.55;4.47;;;;;;;15.42;89.43;101797.53;5042902;28;20044;-58
2022/10/02 11:51:19;;;;;;;16.65;4.40;;;;;;;15.41;90.68;101791.38;5052460;28;20379;-57
2022/10/02 11:54:15;;;;;;;17.88;4.45;;;;;;;15.39;91.61;101788.03;5034238;28;20041;-57
2022/10/02 11:57:00;;;;;;;19.85;5.10;;;;;;;15.42;91.02;101787.69;5035259;28;20036;-57
2022/10/02 12:00:04;;;;;;;16.30;5.03;;;;;;;15.50;92.49;101783.31;5045859;28;20033;-58
2022/10/02 12:02:51;;;;;;;17.52;5.70;;;;;;;15.45;90.12;101781.19;5034618;28;20092;-58
2022/10/02 12:05:29;;;;;;;17.17;5.50;;;;;;;15.42;92.09;101793.03;5034174;28;20404;-58
2022/10/02 12:08:16;;;;;;;15.77;5.35;;;;;;;15.37;92.17;101790.03;5043093;28;21497;-58
2022/10/02 12:10:48;;;;;;;18.42;5.97;;;;;;;15.32;92.01;101803.06;5050438;28;20032;-57
2022/10/02 12:13:29;;;;;;;24.52;6.30;;;;;;;15.28;92.93;101797.25;5033023;28;20048;-59
2022/10/02 12:16:12;;;;;;;19.10;5.75;;;;;;;15.15;93.14;101800.41;5036796;28;20068;-58
2022/10/02 12:18:46;;;;;;;21.85;7.75;;;;;;;15.01;97.22;101806.44;5048693;28;20028;-58
2022/10/02 12:27:43;;;;;;;20.50;6.40;;;;;;;14.83;98.16;101810.09;5047042;28;20039;-58